Aeroporto :
LOGIN :

Iscrizione | Disclaimer

   EN    FR    IT 

 










Sommario :    VFR   VFR Marginale   IFR   IFR Intensivo   IFR Molto Intensivo
Visibilità : 
Base nubi : 
>= 8 km
>= 3000ft
5 / 8 km
1000 / 3000 ft
1500m / 5 km
500 / 1000 ft
800 / 1500m
200 / 500 ft
< 800m
< 200 ft
Simboli :   Temporali  Nebbia  Neve Forte  Precipitazioni Forti  Vento > 20 kt
SIGMETs :   Varie  Temporali  Ghiacco  Turbolenza  Onda orograficha  Ceneri Vulcaniche






- Altitudine del aeroporto : 200 ft


EBBL - Klein Brogel AB

ULTIMO METAR :
  • 220655Z VRB02KT 9999 SCT035 SCT060 06/05 Q1005 BLU BLU TEMPO WHT

METARs OBSOLETI :
  • 220625Z VRB02KT 9999 BKN050 BKN200 06/04 Q1004 BLU BLU TEMPO WHT
  • 220555Z VRB02KT 9999 -RA BKN060 BKN200 05/04 Q1004 BLU BLU TEMPO WHT
  • 220553Z VRB02KT 9999 -RA BKN060 BKN200 05/04 Q1004 BLU BLU TEMPO WHT
  • 220525Z AUTO VRB02KT 9999 SCT059/// SCT086/// BKN200/// 05/04 Q1004 BLU
  • 220455Z AUTO VRB02KT 9999 OVC067/// 05/04 Q1004 BLU
  • 220425Z AUTO VRB02KT 9999 BKN062/// OVC084/// 04/03 Q1005 BLU

TAF TAF EBBL
Valido dal 22 a 07 ore il 22 a 16 ore UTC


220541Z 2207/2216 15008KT 9999 SCT025 BKN040
TEMPO 2207/2208 -RA SCT015 BKN040
TEMPO 2207/2212 SCT020
BECMG 2214/2216 11007KT



MetMap, La meteo Aeronautica in un colpo d'occhio ! - Copyright ORBIFLY Dicembre 2007 - Disclaimer

ORBIFLY MET'MAP TEAM :

Programmazione e sviluppo : Alexandra Zaïnal
Concezione e sviluppo : Baudouin d'Aumeries
Co-Programmazione e sviluppo : Marc-Olivier Méhu
Supporto tecnico e logistico : Manuel Goepfert
Aiuto per la traduzione : Arnaldo La Scala

Contatto : metmap@orbifly.com




FONTI E CREDITI :

   NOAA